LHPP/PEV METAR and TAF weather

Enter ICAO airport designator
Station Type Date Time Source
LHPP METAR 2019/04/22 16:45 UTC NOAA

LHPP 221645Z 12005KT CAVOK 20/02 Q1011


Station Type Date Time Source
LHPP Decoded METAR 2019/04/22 16:45 UTC NOAA

Pecs / Pogany, Hungary (LHPP) 46-06N 018-14E 203M
Apr 22, 2019 - 12:45 PM EDT / 2019.04.22 1645 UTC
Wind: from the ESE (120 degrees) at 6 MPH (5 KT):0
Visibility: greater than 7 mile(s):0
Temperature: 68 F (20 C)
Dew Point: 35 F (2 C)
Relative Humidity: 30%
Pressure (altimeter): 29.85 in. Hg (1011 hPa)
ob: LHPP 221645Z 12005KT CAVOK 20/02 Q1011
cycle: 17

Station Type Date Time Source
LHPP TAF 2017/08/21 15:50 UTC NOAA

TAF LHPP 211700Z 2115/2214 CNL

Example: see airport list